Time;durP1;ratioP1;P1;durP2;ratioP2;P2;SDS_P1;SDS_P2;PMS_P1;PMS_P2;Temp;Humidity;BMP_temperature;BMP_pressure;BME280_temperature;BME280_humidity;BME280_pressure;Samples;Min_cycle;Max_cycle;Signal;HPM_P1;HPM_P2
2021/12/11 00:00:56;;;;;;;2.38;1.73;;;20.10;37.00;;;;;;5039826;28;20490;-69
2021/12/11 00:03:28;;;;;;;3.22;1.70;;;20.10;37.00;;;;;;5045661;28;20489;-69
2021/12/11 00:06:07;;;;;;;3.10;1.70;;;20.10;37.10;;;;;;5059708;28;20025;-69
2021/12/11 00:08:34;;;;;;;2.50;1.60;;;20.10;37.10;;;;;;5059780;28;20029;-69
2021/12/11 00:11:07;;;;;;;2.47;1.42;;;20.00;37.00;;;;;;5059146;28;20025;-69
2021/12/11 00:13:36;;;;;;;2.95;1.65;;;20.00;37.00;;;;;;5059512;28;20025;-69
2021/12/11 00:16:04;;;;;;;2.47;1.73;;;20.00;37.00;;;;;;5057767;28;20041;-69
2021/12/11 00:18:30;;;;;;;2.35;1.58;;;20.00;37.00;;;;;;5047054;28;20048;-69
2021/12/11 00:21:08;;;;;;;2.75;1.77;;;20.00;37.00;;;;;;5039904;28;20132;-69
2021/12/11 00:23:58;;;;;;;2.13;1.58;;;20.00;36.90;;;;;;5038628;28;20477;-70
2021/12/11 00:26:53;;;;;;;2.65;1.92;;;20.00;36.90;;;;;;5039296;28;20021;-70
2021/12/11 00:29:22;;;;;;;2.25;1.58;;;20.00;36.80;;;;;;5039356;28;20042;-69
2021/12/11 00:31:52;;;;;;;2.05;1.55;;;19.90;36.90;;;;;;5040366;28;20448;-69
2021/12/11 00:34:20;;;;;;;2.17;1.52;;;19.90;36.90;;;;;;5037846;28;20021;-69
2021/12/11 00:36:56;;;;;;;2.92;1.77;;;19.90;36.90;;;;;;5038273;28;20513;-69
2021/12/11 00:39:22;;;;;;;2.17;1.80;;;20.00;37.00;;;;;;5038396;28;20036;-69
2021/12/11 00:41:53;;;;;;;2.85;1.90;;;19.90;36.90;;;;;;5039156;28;20044;-69
2021/12/11 00:44:21;;;;;;;2.65;1.77;;;19.90;36.90;;;;;;5038222;28;20039;-69
2021/12/11 00:46:47;;;;;;;3.10;1.88;;;19.90;36.90;;;;;;5038173;28;20489;-69
2021/12/11 00:49:19;;;;;;;2.33;1.60;;;19.90;36.90;;;;;;5038761;28;20092;-69
2021/12/11 00:51:53;;;;;;;2.83;1.80;;;19.90;36.80;;;;;;5039106;28;20467;-69
2021/12/11 00:54:19;;;;;;;2.38;1.73;;;19.90;36.90;;;;;;5039052;28;20067;-69
2021/12/11 00:56:46;;;;;;;3.15;2.00;;;19.90;36.90;;;;;;5038664;28;20026;-69
2021/12/11 00:59:17;;;;;;;2.95;2.00;;;19.90;36.90;;;;;;5037979;28;20032;-70
2021/12/11 01:01:53;;;;;;;2.20;1.75;;;19.90;36.80;;;;;;5039374;28;20052;-69
2021/12/11 01:04:29;;;;;;;2.33;1.60;;;19.90;36.80;;;;;;5048571;28;20022;-69
2021/12/11 01:06:59;;;;;;;3.45;1.92;;;19.90;36.80;;;;;;5038089;28;20478;-69
2021/12/11 01:09:28;;;;;;;2.40;1.80;;;19.90;36.80;;;;;;5039517;28;20378;-69
2021/12/11 01:12:10;;;;;;;3.60;1.90;;;19.90;36.80;;;;;;5039260;28;20466;-69
2021/12/11 01:14:55;;;;;;;2.65;1.75;;;19.90;36.80;;;;;;5038191;28;20028;-69
2021/12/11 01:17:43;;;;;;;2.55;1.85;;;19.90;36.80;;;;;;5042158;28;20465;-69
2021/12/11 01:20:21;;;;;;;3.38;1.63;;;19.80;36.80;;;;;;5057970;28;20104;-69
2021/12/11 01:22:47;;;;;;;4.70;1.88;;;19.80;36.80;;;;;;5057397;28;20028;-69
2021/12/11 01:25:21;;;;;;;2.70;1.80;;;19.80;36.80;;;;;;5058807;28;20029;-70
2021/12/11 01:27:50;;;;;;;2.13;1.60;;;19.80;36.80;;;;;;5057947;28;20095;-70
2021/12/11 01:30:33;;;;;;;2.20;1.80;;;19.80;36.70;;;;;;5055291;28;20073;-70
2021/12/11 01:32:59;;;;;;;2.30;1.70;;;19.80;36.70;;;;;;5037806;28;20049;-70
2021/12/11 01:35:26;;;;;;;3.00;1.80;;;19.80;36.80;;;;;;5038952;28;20053;-70
2021/12/11 01:38:01;;;;;;;2.63;1.70;;;19.80;36.70;;;;;;5037108;28;20080;-69
2021/12/11 01:40:31;;;;;;;2.72;1.77;;;19.80;36.70;;;;;;5038353;28;20032;-69
2021/12/11 01:42:58;;;;;;;2.42;1.83;;;19.80;36.70;;;;;;5038746;28;20053;-69
2021/12/11 01:45:24;;;;;;;2.13;1.73;;;19.80;36.70;;;;;;5037341;28;20026;-69
2021/12/11 01:47:49;;;;;;;2.38;1.75;;;19.80;36.70;;;;;;5038948;28;20037;-69
2021/12/11 01:50:51;;;;;;;2.13;1.92;;;19.80;36.70;;;;;;5038368;28;20072;-69
2021/12/11 01:53:21;;;;;;;2.50;1.90;;;19.80;36.50;;;;;;5016165;28;20025;-69
2021/12/11 01:55:58;;;;;;;3.10;1.98;;;19.70;36.70;;;;;;5038139;28;20022;-69
2021/12/11 01:58:35;;;;;;;2.90;2.05;;;19.70;36.60;;;;;;5038291;28;20033;-69
2021/12/11 02:01:11;;;;;;;2.83;1.88;;;19.70;36.60;;;;;;5038385;28;20433;-69
2021/12/11 02:03:37;;;;;;;2.67;1.98;;;19.70;36.60;;;;;;5046387;28;20548;-70
2021/12/11 02:06:05;;;;;;;2.72;1.98;;;19.70;36.60;;;;;;5037632;28;20520;-69
2021/12/11 02:08:33;;;;;;;3.00;2.13;;;19.70;36.60;;;;;;5038143;28;20545;-69
2021/12/11 02:11:10;;;;;;;2.67;1.80;;;19.70;36.60;;;;;;5039930;28;20120;-70
2021/12/11 02:13:56;;;;;;;2.55;2.00;;;19.70;36.60;;;;;;5041929;28;20428;-69
2021/12/11 02:16:24;;;;;;;3.03;1.80;;;19.70;36.50;;;;;;5042094;28;20022;-69
2021/12/11 02:18:58;;;;;;;2.70;1.80;;;19.70;36.60;;;;;;5057513;28;20064;-69
2021/12/11 02:21:28;;;;;;;3.13;2.00;;;19.70;36.60;;;;;;5060781;28;20028;-69
2021/12/11 02:24:03;;;;;;;2.65;1.88;;;19.70;36.60;;;;;;5062303;28;20025;-69
2021/12/11 02:26:30;;;;;;;2.85;1.80;;;19.70;36.50;;;;;;5060753;28;20492;-69
2021/12/11 02:29:04;;;;;;;1.90;1.55;;;19.70;36.60;;;;;;5060016;28;20049;-69
2021/12/11 02:31:43;;;;;;;2.75;1.98;;;19.70;36.50;;;;;;5061372;28;20031;-69
2021/12/11 02:34:15;;;;;;;2.20;1.70;;;19.60;36.40;;;;;;5061894;28;20017;-69
2021/12/11 02:36:54;;;;;;;3.17;1.95;;;19.70;36.50;;;;;;5062106;28;20021;-69
2021/12/11 02:39:37;;;;;;;3.08;1.92;;;19.60;36.40;;;;;;5061936;28;20381;-69
2021/12/11 02:42:22;;;;;;;2.58;1.80;;;19.60;36.50;;;;;;5061468;28;20119;-69
2021/12/11 02:45:00;;;;;;;3.50;2.13;;;19.60;36.60;;;;;;5060307;28;20024;-69
2021/12/11 02:47:43;;;;;;;2.50;1.85;;;19.60;36.50;;;;;;5061213;28;20043;-69
2021/12/11 02:50:14;;;;;;;2.90;2.00;;;19.60;36.50;;;;;;5061345;28;20037;-69
2021/12/11 02:52:47;;;;;;;3.80;2.20;;;19.60;36.60;;;;;;5060430;28;20025;-69
2021/12/11 02:55:28;;;;;;;2.83;1.90;;;19.60;36.50;;;;;;5045331;28;20144;-69
2021/12/11 02:58:00;;;;;;;2.30;1.95;;;19.60;36.50;;;;;;5042725;28;20032;-69
2021/12/11 03:00:40;;;;;;;2.63;1.77;;;19.60;36.50;;;;;;5041483;28;20018;-69
2021/12/11 03:03:09;;;;;;;2.45;1.80;;;19.60;36.40;;;;;;5045294;28;20154;-69
2021/12/11 03:05:44;;;;;;;2.13;1.70;;;19.60;36.50;;;;;;5060422;28;20032;-69
2021/12/11 03:08:15;;;;;;;3.05;1.70;;;19.60;36.50;;;;;;5059677;28;20162;-69
2021/12/11 03:10:44;;;;;;;2.92;1.92;;;19.60;36.50;;;;;;5060945;28;20079;-69
2021/12/11 03:13:10;;;;;;;3.30;2.10;;;19.60;36.40;;;;;;5060043;28;20059;-69
2021/12/11 03:15:36;;;;;;;2.72;2.00;;;19.60;36.50;;;;;;5060491;28;20108;-69
2021/12/11 03:18:05;;;;;;;2.13;1.80;;;19.60;36.40;;;;;;5052176;28;20021;-69
2021/12/11 03:20:32;;;;;;;2.83;1.60;;;19.60;36.40;;;;;;5039805;28;20026;-69
2021/12/11 03:22:58;;;;;;;2.97;2.10;;;19.60;36.40;;;;;;5041478;28;20041;-70
2021/12/11 03:25:28;;;;;;;2.88;2.17;;;19.60;36.40;;;;;;5039270;28;20367;-70
2021/12/11 03:27:55;;;;;;;2.85;1.85;;;19.60;37.30;;;;;;5041798;28;20033;-69
2021/12/11 03:30:25;;;;;;;2.88;2.13;;;19.50;36.30;;;;;;5044351;28;20374;-69
2021/12/11 03:32:53;;;;;;;2.45;1.90;;;19.50;36.20;;;;;;5061474;28;20021;-69
2021/12/11 03:35:19;;;;;;;3.55;2.10;;;19.50;37.20;;;;;;5060885;28;20017;-69
2021/12/11 03:37:46;;;;;;;2.95;1.80;;;19.50;36.30;;;;;;5060892;28;20558;-69
2021/12/11 03:40:12;;;;;;;3.40;1.95;;;19.50;36.20;;;;;;5061012;28;20102;-69
2021/12/11 03:42:41;;;;;;;2.70;1.98;;;19.50;36.20;;;;;;5059304;28;20028;-69
2021/12/11 03:45:14;;;;;;;2.75;1.90;;;19.50;36.20;;;;;;5059769;28;20599;-69
2021/12/11 03:47:45;;;;;;;2.55;2.13;;;19.50;36.20;;;;;;5060654;28;20025;-69
2021/12/11 03:50:13;;;;;;;2.78;1.90;;;19.50;36.20;;;;;;5060413;28;20373;-69
2021/12/11 03:52:41;;;;;;;2.63;2.05;;;19.50;36.20;;;;;;5059813;28;20055;-69
2021/12/11 03:55:10;;;;;;;3.05;2.03;;;19.50;36.20;;;;;;5060389;28;20029;-70
2021/12/11 03:57:37;;;;;;;3.50;2.13;;;19.50;36.20;;;;;;5058509;28;20121;-69
2021/12/11 04:00:09;;;;;;;3.58;2.08;;;19.50;36.20;;;;;;5060337;28;20104;-69
2021/12/11 04:02:36;;;;;;;2.78;2.00;;;19.50;36.20;;;;;;5060294;28;20025;-69
2021/12/11 04:05:07;;;;;;;2.38;1.90;;;19.50;36.20;;;;;;5051183;28;20036;-69
2021/12/11 04:07:38;;;;;;;2.72;1.63;;;19.50;36.20;;;;;;5060396;28;20040;-69
2021/12/11 04:10:07;;;;;;;2.42;1.85;;;19.50;36.20;;;;;;5060652;28;20028;-69
2021/12/11 04:12:32;;;;;;;3.05;1.73;;;19.50;36.20;;;;;;5060386;28;20032;-69
2021/12/11 04:14:58;;;;;;;3.50;2.10;;;19.50;36.20;;;;;;5058470;28;20044;-69
2021/12/11 04:17:27;;;;;;;3.05;1.95;;;19.50;36.20;;;;;;5059376;28;20033;-69
2021/12/11 04:19:56;;;;;;;2.45;1.85;;;19.40;36.10;;;;;;5058747;28;20136;-69
2021/12/11 04:22:23;;;;;;;2.55;2.10;;;19.50;36.20;;;;;;5059056;28;20028;-69
2021/12/11 04:24:51;;;;;;;2.58;2.10;;;19.50;36.20;;;;;;5060191;28;20113;-69
2021/12/11 04:27:18;;;;;;;3.63;1.75;;;19.50;36.20;;;;;;5059967;28;20052;-69
2021/12/11 04:29:47;;;;;;;2.88;2.00;;;19.50;36.20;;;;;;5060016;28;20018;-69
2021/12/11 04:32:13;;;;;;;3.03;1.90;;;19.50;36.20;;;;;;5039089;28;20473;-69
2021/12/11 04:34:39;;;;;;;2.40;1.90;;;19.50;36.10;;;;;;5040087;28;20124;-69
2021/12/11 04:37:24;;;;;;;2.70;1.77;;;19.40;36.10;;;;;;5038449;28;20064;-69
2021/12/11 04:39:58;;;;;;;2.67;1.90;;;19.50;36.10;;;;;;5040067;28;20030;-69
2021/12/11 04:42:42;;;;;;;2.40;1.90;;;19.40;36.10;;;;;;5040062;28;20029;-69
2021/12/11 04:45:14;;;;;;;2.53;1.95;;;19.40;36.10;;;;;;5039458;28;20435;-69
2021/12/11 04:47:47;;;;;;;2.65;2.00;;;19.40;36.20;;;;;;5039633;28;20028;-69
2021/12/11 04:50:23;;;;;;;2.95;2.00;;;19.40;36.10;;;;;;5040110;28;20085;-69
2021/12/11 04:52:54;;;;;;;3.05;2.00;;;19.40;36.10;;;;;;5039962;28;20017;-69
2021/12/11 05:01:02;;;;;;;2.13;1.80;;;19.40;36.10;;;;;;5059990;28;20500;-69
2021/12/11 05:04:04;;;;;;;2.97;1.92;;;19.40;36.10;;;;;;5058991;28;20020;-70
2021/12/11 05:06:44;;;;;;;2.47;1.70;;;19.40;36.20;;;;;;5039808;28;20041;-70
2021/12/11 05:11:49;;;;;;;2.42;1.90;;;19.30;36.10;;;;;;5039830;28;20116;-69
2021/12/11 05:14:16;;;;;;;2.92;2.17;;;19.30;36.10;;;;;;5040190;28;20021;-69
2021/12/11 05:16:43;;;;;;;2.92;1.88;;;19.30;36.10;;;;;;5040238;28;20359;-69
2021/12/11 05:19:09;;;;;;;2.45;2.03;;;19.40;36.10;;;;;;5057536;28;20474;-69
2021/12/11 05:21:34;;;;;;;2.28;1.80;;;19.30;36.10;;;;;;5059114;28;20025;-69
2021/12/11 05:24:01;;;;;;;3.42;2.00;;;19.40;36.10;;;;;;5058394;28;20025;-69
2021/12/11 05:26:27;;;;;;;3.17;2.00;;;19.40;36.10;;;;;;5059209;28;20036;-69
2021/12/11 05:28:53;;;;;;;3.00;1.88;;;19.40;36.10;;;;;;5059357;28;20409;-70
2021/12/11 05:31:20;;;;;;;3.17;1.90;;;19.40;36.10;;;;;;5045798;28;20021;-70
2021/12/11 05:33:46;;;;;;;2.42;1.83;;;19.30;36.00;;;;;;5038929;28;20509;-70
2021/12/11 05:36:15;;;;;;;2.75;1.85;;;19.30;36.00;;;;;;5038261;28;20053;-69
2021/12/11 05:38:43;;;;;;;2.05;1.77;;;19.40;36.10;;;;;;5037118;28;20040;-69
2021/12/11 05:41:12;;;;;;;2.38;1.90;;;19.40;36.00;;;;;;5039818;28;20021;-69
2021/12/11 05:43:38;;;;;;;2.42;2.00;;;19.30;36.00;;;;;;5039632;28;20072;-69
2021/12/11 05:46:06;;;;;;;2.35;1.90;;;19.40;36.00;;;;;;5041791;28;20052;-69
2021/12/11 05:48:32;;;;;;;3.15;2.00;;;19.40;36.00;;;;;;5042592;28;20124;-69
2021/12/11 05:51:01;;;;;;;2.53;1.80;;;19.30;36.00;;;;;;5042181;28;20080;-70
2021/12/11 05:53:30;;;;;;;2.90;2.00;;;19.30;36.00;;;;;;5043458;28;20026;-69
2021/12/11 05:55:57;;;;;;;3.75;1.95;;;19.30;36.00;;;;;;5042991;28;20116;-70
2021/12/11 06:01:36;;;;;;;2.60;1.92;;;19.30;36.00;;;;;;5041077;28;20040;-70
2021/12/11 06:04:07;;;;;;;3.13;1.85;;;19.30;36.00;;;;;;5041528;28;20041;-70
2021/12/11 06:06:34;;;;;;;2.97;2.20;;;19.30;36.10;;;;;;5043210;28;20117;-70
2021/12/11 06:09:01;;;;;;;2.90;2.00;;;19.30;36.10;;;;;;5043301;28;20160;-70
2021/12/11 06:11:26;;;;;;;3.17;2.10;;;19.30;36.10;;;;;;5041692;28;20029;-70
2021/12/11 06:13:52;;;;;;;2.92;2.13;;;19.30;36.10;;;;;;5043000;28;20025;-70
2021/12/11 06:16:18;;;;;;;3.05;2.10;;;19.30;36.10;;;;;;5042903;28;20021;-70
2021/12/11 06:18:45;;;;;;;3.25;1.95;;;19.30;36.10;;;;;;5057142;28;20021;-70
2021/12/11 06:21:10;;;;;;;2.25;1.73;;;19.30;36.00;;;;;;5061606;28;20079;-69
2021/12/11 06:23:36;;;;;;;3.15;2.17;;;19.30;36.10;;;;;;5061347;28;20021;-69
2021/12/11 06:26:02;;;;;;;2.92;2.17;;;19.30;36.00;;;;;;5062636;28;20029;-69
2021/12/11 06:28:28;;;;;;;2.70;2.17;;;19.30;36.00;;;;;;5061482;28;20508;-69
2021/12/11 06:30:58;;;;;;;2.28;1.98;;;19.30;36.00;;;;;;5052530;28;20021;-69
2021/12/11 06:33:27;;;;;;;2.55;2.08;;;19.30;36.00;;;;;;5041622;28;20056;-69
2021/12/11 06:36:01;;;;;;;3.03;2.10;;;19.30;36.10;;;;;;5042616;28;20049;-69
2021/12/11 06:38:30;;;;;;;2.55;1.98;;;19.30;36.10;;;;;;5041953;28;20017;-69
2021/12/11 06:40:56;;;;;;;3.13;2.40;;;19.30;36.10;;;;;;5042074;28;20096;-69
2021/12/11 06:43:23;;;;;;;2.67;2.00;;;19.30;36.10;;;;;;5041812;28;20501;-69
2021/12/11 06:45:49;;;;;;;2.45;1.88;;;19.30;36.10;;;;;;5041818;28;20028;-69
2021/12/11 06:48:16;;;;;;;2.33;2.00;;;19.30;36.10;;;;;;5042036;28;20029;-69
2021/12/11 06:50:42;;;;;;;2.80;2.10;;;19.30;36.10;;;;;;5040722;28;20018;-69
2021/12/11 06:53:14;;;;;;;2.13;1.85;;;19.30;36.10;;;;;;5040522;28;20045;-69
2021/12/11 06:55:40;;;;;;;2.35;1.85;;;19.30;36.10;;;;;;5041763;28;20032;-69
2021/12/11 06:58:06;;;;;;;3.00;2.20;;;19.30;36.10;;;;;;5041872;28;20026;-69
2021/12/11 07:00:31;;;;;;;2.95;2.00;;;19.30;36.10;;;;;;5040117;28;20030;-69
2021/12/11 07:02:57;;;;;;;3.22;2.03;;;19.30;36.10;;;;;;5044210;28;20031;-69
2021/12/11 07:05:23;;;;;;;3.10;2.20;;;19.30;36.10;;;;;;5061958;28;20032;-69
2021/12/11 07:07:49;;;;;;;2.67;2.20;;;19.30;36.10;;;;;;5061312;28;20371;-69
2021/12/11 07:10:23;;;;;;;3.05;2.00;;;19.30;36.10;;;;;;5059719;28;20067;-69
2021/12/11 07:12:50;;;;;;;3.00;1.95;;;19.20;36.00;;;;;;5060463;28;20024;-69
2021/12/11 07:15:18;;;;;;;2.03;1.83;;;19.20;36.00;;;;;;5061242;28;20025;-69
2021/12/11 07:17:43;;;;;;;2.20;1.95;;;19.30;36.10;;;;;;5060279;28;20396;-69
2021/12/11 07:20:12;;;;;;;3.10;2.28;;;19.30;36.10;;;;;;5061503;28;20037;-69
2021/12/11 07:22:41;;;;;;;2.55;2.10;;;19.30;36.10;;;;;;5061095;28;20048;-69
2021/12/11 07:25:16;;;;;;;2.45;1.83;;;19.30;36.10;;;;;;5061688;28;20020;-69
2021/12/11 07:27:43;;;;;;;3.03;2.05;;;19.30;36.10;;;;;;5059721;28;20053;-69
2021/12/11 07:30:09;;;;;;;3.03;2.15;;;19.30;36.10;;;;;;5057220;28;20124;-69
2021/12/11 07:32:35;;;;;;;2.38;2.00;;;19.30;36.20;;;;;;5041107;28;20025;-69
2021/12/11 07:35:00;;;;;;;2.80;2.05;;;19.30;36.40;;;;;;5039854;28;20029;-70
2021/12/11 07:37:26;;;;;;;3.05;2.13;;;19.30;36.10;;;;;;5039525;28;20033;-69
2021/12/11 07:39:51;;;;;;;2.70;2.00;;;19.30;36.10;;;;;;5041502;28;20552;-70
2021/12/11 07:42:17;;;;;;;3.22;2.00;;;19.30;36.10;;;;;;5039638;28;20363;-70
2021/12/11 07:44:43;;;;;;;2.40;1.88;;;19.30;36.10;;;;;;5040397;28;20037;-70
2021/12/11 07:47:08;;;;;;;2.70;2.22;;;19.30;36.10;;;;;;5040787;28;20021;-69
2021/12/11 07:49:35;;;;;;;2.65;2.00;;;19.30;36.10;;;;;;5040341;28;20026;-69
2021/12/11 07:52:01;;;;;;;2.60;2.08;;;19.30;36.10;;;;;;5040440;28;20018;-69
2021/12/11 07:54:28;;;;;;;2.65;2.00;;;19.30;36.10;;;;;;5038421;28;20028;-69
2021/12/11 07:56:54;;;;;;;2.55;1.85;;;19.30;36.10;;;;;;5040270;28;20022;-69
2021/12/11 07:59:21;;;;;;;2.95;2.10;;;19.30;36.20;;;;;;5039731;28;20029;-69
2021/12/11 08:01:50;;;;;;;2.53;2.00;;;19.20;36.10;;;;;;5039169;28;20048;-69
2021/12/11 08:04:16;;;;;;;2.40;2.08;;;19.30;36.10;;;;;;5049072;28;20031;-69
2021/12/11 08:06:42;;;;;;;2.95;2.08;;;19.30;36.10;;;;;;5038703;28;20025;-69
2021/12/11 08:09:12;;;;;;;2.40;1.83;;;19.20;37.00;;;;;;5037774;28;20017;-69
2021/12/11 08:11:39;;;;;;;2.50;2.08;;;19.20;36.10;;;;;;5038677;28;20026;-69
2021/12/11 08:14:06;;;;;;;2.55;2.05;;;19.30;36.10;;;;;;5038808;28;20041;-69
2021/12/11 08:16:43;;;;;;;2.72;2.10;;;19.30;36.10;;;;;;5038576;28;20478;-69
2021/12/11 08:19:09;;;;;;;2.33;1.80;;;19.30;36.10;;;;;;5039511;28;20441;-69
2021/12/11 08:21:34;;;;;;;2.80;2.00;;;19.20;36.10;;;;;;5038045;28;20026;-69
2021/12/11 08:24:04;;;;;;;3.63;2.20;;;19.20;36.10;;;;;;5039434;28;20034;-69
2021/12/11 08:26:31;;;;;;;2.50;2.03;;;19.20;36.10;;;;;;5039147;28;20056;-69
2021/12/11 08:28:56;;;;;;;2.45;2.03;;;19.20;36.10;;;;;;5037999;28;20094;-69
2021/12/11 08:31:23;;;;;;;2.88;2.20;;;19.20;36.10;;;;;;5039799;28;20096;-69
2021/12/11 08:33:50;;;;;;;2.35;1.90;;;19.20;36.10;;;;;;5039779;28;20386;-69
2021/12/11 08:36:16;;;;;;;3.10;2.15;;;19.20;36.10;;;;;;5039860;28;20018;-69
2021/12/11 08:38:42;;;;;;;2.55;2.00;;;19.20;36.10;;;;;;5038722;28;20053;-69
2021/12/11 08:41:10;;;;;;;2.72;2.22;;;19.20;36.10;;;;;;5039395;28;20022;-69
2021/12/11 08:43:36;;;;;;;2.25;1.88;;;19.20;36.10;;;;;;5040154;28;20022;-69
2021/12/11 08:46:13;;;;;;;2.47;2.03;;;19.20;36.10;;;;;;5038433;28;20554;-69
2021/12/11 08:48:45;;;;;;;3.10;2.13;;;19.20;36.10;;;;;;5039914;28;20033;-69
2021/12/11 08:51:20;;;;;;;2.70;2.00;;;19.20;36.10;;;;;;5039257;28;20109;-69
2021/12/11 08:53:46;;;;;;;2.47;1.90;;;19.20;36.10;;;;;;5038149;28;20018;-69
2021/12/11 08:56:13;;;;;;;2.83;2.13;;;19.20;36.10;;;;;;5037982;28;20017;-69
2021/12/11 08:58:40;;;;;;;3.38;2.30;;;19.20;36.10;;;;;;5038058;28;20017;-69
2021/12/11 09:01:09;;;;;;;2.90;2.22;;;19.20;36.10;;;;;;5037831;28;20502;-69
2021/12/11 09:03:48;;;;;;;3.22;2.00;;;19.20;36.10;;;;;;5047987;28;20021;-70
2021/12/11 09:06:19;;;;;;;3.08;2.30;;;19.20;36.10;;;;;;5058314;28;20029;-70
2021/12/11 09:08:57;;;;;;;3.30;2.13;;;19.20;36.10;;;;;;5059386;28;20021;-70
2021/12/11 09:11:28;;;;;;;2.72;2.20;;;19.20;36.10;;;;;;5058628;28;20021;-69
2021/12/11 09:14:17;;;;;;;3.58;1.90;;;19.20;36.20;;;;;;5059162;28;20085;-69
2021/12/11 09:16:48;;;;;;;3.08;2.28;;;19.20;36.10;;;;;;5059285;28;20051;-69
2021/12/11 09:19:36;;;;;;;3.58;2.30;;;19.20;36.20;;;;;;5058905;28;20033;-69
2021/12/11 09:22:15;;;;;;;2.92;2.10;;;19.20;36.20;;;;;;5058087;28;20021;-69
2021/12/11 09:24:54;;;;;;;2.55;2.00;;;19.20;36.30;;;;;;5059638;28;20028;-69
2021/12/11 09:27:49;;;;;;;3.17;2.40;;;19.20;36.30;;;;;;5057649;28;20053;-69
2021/12/11 09:30:26;;;;;;;3.40;2.20;;;19.20;36.20;;;;;;5053411;28;20038;-69
2021/12/11 09:33:05;;;;;;;2.90;2.20;;;19.20;36.30;;;;;;5038517;28;20028;-69
2021/12/11 09:35:35;;;;;;;2.45;1.88;;;19.20;36.30;;;;;;5037861;28;20079;-69
2021/12/11 09:38:09;;;;;;;3.55;2.40;;;19.20;36.30;;;;;;5038821;28;20101;-69
2021/12/11 09:40:35;;;;;;;2.72;2.40;;;19.20;36.30;;;;;;5038925;28;20033;-69
2021/12/11 09:43:01;;;;;;;3.83;2.08;;;19.20;36.30;;;;;;5037768;28;20120;-69
2021/12/11 09:45:32;;;;;;;2.67;2.10;;;19.20;36.30;;;;;;5039343;28;20025;-69
2021/12/11 09:48:07;;;;;;;3.17;2.20;;;19.20;36.30;;;;;;5039498;28;20022;-69
2021/12/11 09:50:46;;;;;;;2.35;1.90;;;19.30;36.30;;;;;;5039658;28;20037;-69
2021/12/11 09:53:16;;;;;;;2.70;2.17;;;19.20;36.30;;;;;;5038971;28;20018;-70
2021/12/11 09:55:43;;;;;;;2.75;2.20;;;19.20;36.30;;;;;;5039489;28;20022;-70
2021/12/11 09:58:16;;;;;;;3.35;2.35;;;19.20;36.30;;;;;;5037687;28;20017;-70
2021/12/11 10:00:51;;;;;;;3.50;2.20;;;19.20;36.30;;;;;;5039311;28;20075;-70
2021/12/11 10:03:22;;;;;;;3.05;2.22;;;19.30;36.30;;;;;;5043714;28;20029;-70
2021/12/11 10:05:56;;;;;;;2.10;1.90;;;19.20;36.30;;;;;;5040585;28;20025;-70
2021/12/11 10:08:36;;;;;;;3.10;2.20;;;19.30;36.30;;;;;;5039114;28;20109;-69
2021/12/11 10:11:20;;;;;;;2.92;2.17;;;19.30;36.40;;;;;;5039141;28;20014;-69
2021/12/11 10:13:47;;;;;;;3.17;2.17;;;19.20;36.30;;;;;;5037853;28;20033;-69
2021/12/11 10:16:15;;;;;;;2.70;2.00;;;19.20;36.40;;;;;;5038985;28;20085;-69
2021/12/11 10:18:41;;;;;;;2.80;2.05;;;19.20;36.40;;;;;;5052462;28;20029;-69
2021/12/11 10:21:16;;;;;;;2.40;2.20;;;19.30;36.40;;;;;;5057231;28;20025;-69
2021/12/11 10:23:45;;;;;;;2.85;2.00;;;19.30;36.40;;;;;;5058996;28;20025;-69
2021/12/11 10:26:13;;;;;;;2.88;2.00;;;19.20;36.40;;;;;;5059226;28;20056;-69
2021/12/11 10:28:44;;;;;;;3.08;2.22;;;19.20;36.40;;;;;;5058688;28;20497;-69
2021/12/11 10:31:17;;;;;;;3.10;2.35;;;19.30;36.40;;;;;;5046794;28;20013;-69
2021/12/11 10:33:43;;;;;;;2.72;1.90;;;19.30;36.40;;;;;;5041070;28;20025;-69
2021/12/11 10:36:13;;;;;;;2.60;2.22;;;19.30;36.40;;;;;;5042115;28;20673;-69
2021/12/11 10:38:41;;;;;;;3.25;2.08;;;19.30;36.40;;;;;;5042239;28;20031;-69
2021/12/11 10:41:08;;;;;;;3.40;2.25;;;19.30;36.50;;;;;;5042350;28;20026;-70
2021/12/11 10:43:46;;;;;;;3.25;2.20;;;19.20;36.40;;;;;;5040680;28;20022;-69
2021/12/11 10:46:14;;;;;;;3.05;2.10;;;19.30;36.50;;;;;;5041265;28;20087;-69
2021/12/11 10:48:42;;;;;;;3.05;2.08;;;19.30;36.50;;;;;;5040720;28;20021;-69
2021/12/11 10:51:17;;;;;;;2.58;2.00;;;19.30;36.50;;;;;;5040782;28;20017;-69
2021/12/11 10:53:46;;;;;;;3.38;2.42;;;19.30;36.50;;;;;;5041837;28;20470;-69
2021/12/11 10:56:14;;;;;;;2.75;2.22;;;19.30;36.50;;;;;;5041924;28;20028;-69
2021/12/11 10:58:45;;;;;;;2.78;2.10;;;19.30;36.50;;;;;;5057236;28;20140;-69
2021/12/11 11:01:18;;;;;;;3.05;2.10;;;19.30;36.50;;;;;;5042282;28;20045;-70
2021/12/11 11:03:49;;;;;;;3.45;2.10;;;19.30;36.60;;;;;;5051533;28;20055;-69
2021/12/11 11:06:15;;;;;;;3.55;2.28;;;19.30;36.60;;;;;;5041539;28;20022;-69
2021/12/11 11:08:42;;;;;;;3.05;2.20;;;19.30;36.60;;;;;;5041694;28;20022;-69
2021/12/11 11:11:12;;;;;;;2.40;2.00;;;19.30;36.60;;;;;;5042178;28;20084;-69
2021/12/11 11:13:38;;;;;;;2.75;2.20;;;19.30;36.60;;;;;;5041779;28;20029;-69
2021/12/11 11:16:05;;;;;;;3.03;2.30;;;19.30;36.60;;;;;;5041789;28;20025;-69
2021/12/11 11:18:31;;;;;;;3.17;2.00;;;19.30;36.60;;;;;;5054554;28;20477;-69
2021/12/11 11:21:06;;;;;;;2.70;1.90;;;19.30;36.60;;;;;;5061649;28;20389;-69
2021/12/11 11:23:32;;;;;;;3.30;2.38;;;19.30;36.60;;;;;;5060358;28;20025;-69
2021/12/11 11:26:03;;;;;;;3.75;2.47;;;19.30;36.60;;;;;;5061598;28;20104;-69
2021/12/11 11:28:33;;;;;;;2.38;1.88;;;19.30;36.60;;;;;;5060280;28;20051;-69
2021/12/11 11:31:02;;;;;;;2.63;1.92;;;19.30;36.60;;;;;;5061719;28;20088;-69
2021/12/11 11:33:29;;;;;;;2.78;2.13;;;19.30;36.70;;;;;;5061742;28;20059;-69
2021/12/11 11:35:57;;;;;;;3.10;2.20;;;19.30;36.60;;;;;;5061939;28;20017;-69
2021/12/11 11:38:28;;;;;;;2.78;2.15;;;19.30;36.70;;;;;;5061964;28;20036;-69
2021/12/11 11:40:57;;;;;;;2.55;1.77;;;19.40;36.70;;;;;;5061202;28;20025;-69
2021/12/11 11:43:24;;;;;;;2.70;1.90;;;19.30;36.80;;;;;;5059878;28;20223;-69
2021/12/11 11:45:52;;;;;;;3.28;2.28;;;19.30;36.70;;;;;;5061510;28;20035;-69
2021/12/11 11:48:21;;;;;;;2.80;2.03;;;19.40;36.70;;;;;;5060851;28;20032;-69
2021/12/11 11:50:48;;;;;;;3.17;2.22;;;19.40;36.80;;;;;;5061540;28;20029;-69
2021/12/11 11:53:13;;;;;;;2.90;2.03;;;19.40;36.80;;;;;;5061492;28;20077;-69
2021/12/11 11:55:49;;;;;;;2.22;1.85;;;19.40;36.80;;;;;;5060721;28;20433;-70
2021/12/11 11:58:16;;;;;;;2.45;2.10;;;19.40;36.80;;;;;;5060720;28;20024;-70
2021/12/11 12:00:52;;;;;;;3.10;2.42;;;19.40;36.80;;;;;;5061635;28;20021;-69
2021/12/11 12:03:21;;;;;;;3.55;2.10;;;19.40;36.90;;;;;;5061352;28;20474;-69
2021/12/11 12:05:50;;;;;;;3.50;2.10;;;19.40;36.90;;;;;;5060743;28;20029;-69
2021/12/11 12:08:16;;;;;;;2.70;2.42;;;19.40;36.90;;;;;;5061561;28;20055;-69
2021/12/11 12:10:45;;;;;;;2.55;2.10;;;19.40;36.90;;;;;;5060558;28;20017;-69
2021/12/11 12:13:12;;;;;;;3.47;2.10;;;19.40;36.90;;;;;;5059702;28;20465;-69
2021/12/11 12:15:45;;;;;;;2.47;1.90;;;19.40;36.90;;;;;;5060834;28;20071;-69
2021/12/11 12:18:14;;;;;;;2.75;1.90;;;19.40;36.90;;;;;;5051160;28;20605;-69
2021/12/11 12:20:41;;;;;;;2.90;2.20;;;19.40;36.90;;;;;;5039887;28;20503;-69
2021/12/11 12:23:09;;;;;;;3.22;1.83;;;19.40;36.90;;;;;;5041375;28;20029;-69
2021/12/11 12:25:36;;;;;;;2.80;2.30;;;19.40;36.90;;;;;;5040663;28;20116;-69
2021/12/11 12:28:03;;;;;;;3.05;2.00;;;19.40;36.90;;;;;;5040805;28;20041;-69
2021/12/11 12:30:39;;;;;;;2.53;2.05;;;19.40;36.90;;;;;;5047000;28;20013;-69
2021/12/11 12:33:06;;;;;;;3.33;2.20;;;19.40;36.90;;;;;;5060887;28;20049;-69
2021/12/11 12:35:33;;;;;;;2.50;2.00;;;19.40;36.90;;;;;;5060856;28;20017;-69
2021/12/11 12:38:01;;;;;;;2.83;2.20;;;19.40;37.90;;;;;;5061085;28;20047;-69
2021/12/11 12:40:55;;;;;;;3.08;2.08;;;19.40;36.90;;;;;;5059468;28;20032;-69
2021/12/11 12:46:08;;;;;;;3.10;2.13;;;19.40;37.00;;;;;;5060457;28;20417;-69
2021/12/11 12:48:34;;;;;;;2.55;1.92;;;19.40;37.00;;;;;;5059367;28;20474;-69
2021/12/11 12:51:05;;;;;;;3.13;2.20;;;19.40;37.00;;;;;;5060213;28;20017;-69
2021/12/11 12:53:35;;;;;;;2.75;1.90;;;19.40;37.00;;;;;;5057718;28;20028;-69
2021/12/11 12:56:29;;;;;;;2.97;2.10;;;19.40;37.00;;;;;;5039353;28;20021;-69
2021/12/11 12:59:03;;;;;;;2.67;1.90;;;19.40;36.90;;;;;;5039569;28;20521;-69
2021/12/11 13:01:34;;;;;;;2.47;2.10;;;19.40;37.00;;;;;;5041107;28;20022;-69
2021/12/11 13:04:05;;;;;;;2.67;2.10;;;19.40;37.00;;;;;;5051358;28;20017;-70
2021/12/11 13:06:37;;;;;;;3.00;2.10;;;19.40;37.00;;;;;;5061052;28;20100;-70
2021/12/11 13:09:16;;;;;;;2.42;2.05;;;19.40;37.00;;;;;;5060483;28;20083;-69
2021/12/11 13:12:04;;;;;;;2.35;1.83;;;19.40;37.00;;;;;;5059498;28;20017;-69
2021/12/11 13:14:31;;;;;;;2.40;1.95;;;19.40;37.00;;;;;;5059179;28;20076;-69
2021/12/11 13:17:03;;;;;;;2.47;1.80;;;19.40;37.00;;;;;;5060153;28;20051;-69
2021/12/11 13:19:40;;;;;;;2.25;1.90;;;19.40;37.00;;;;;;5058838;28;20031;-69